sensor_id;sensor_type;location;lat;lon;timestamp;P1;durP1;ratioP1;P2;durP2;ratioP2
5391;SDS011;2719;53.624;9.786;2023-06-19T00:00:42;3.77;;;2.77;;
5391;SDS011;2719;53.624;9.786;2023-06-19T00:03:09;2.70;;;2.50;;
5391;SDS011;2719;53.624;9.786;2023-06-19T00:05:36;5.43;;;3.40;;
5391;SDS011;2719;53.624;9.786;2023-06-19T00:08:03;3.23;;;2.93;;
5391;SDS011;2719;53.624;9.786;2023-06-19T00:10:31;4.47;;;2.70;;
5391;SDS011;2719;53.624;9.786;2023-06-19T00:12:58;2.53;;;2.33;;
5391;SDS011;2719;53.624;9.786;2023-06-19T00:15:25;3.10;;;2.67;;
5391;SDS011;2719;53.624;9.786;2023-06-19T00:17:55;3.93;;;3.00;;
5391;SDS011;2719;53.624;9.786;2023-06-19T00:20:23;4.33;;;2.40;;
5391;SDS011;2719;53.624;9.786;2023-06-19T00:22:51;2.50;;;2.30;;
5391;SDS011;2719;53.624;9.786;2023-06-19T00:25:18;4.53;;;3.27;;
5391;SDS011;2719;53.624;9.786;2023-06-19T00:27:45;3.77;;;2.57;;
5391;SDS011;2719;53.624;9.786;2023-06-19T00:30:12;16.30;;;3.73;;
5391;SDS011;2719;53.624;9.786;2023-06-19T00:32:39;4.90;;;2.87;;
5391;SDS011;2719;53.624;9.786;2023-06-19T00:35:13;2.60;;;2.27;;
5391;SDS011;2719;53.624;9.786;2023-06-19T00:37:41;3.17;;;2.97;;
5391;SDS011;2719;53.624;9.786;2023-06-19T00:40:10;7.43;;;2.43;;
5391;SDS011;2719;53.624;9.786;2023-06-19T00:42:39;5.07;;;2.57;;
5391;SDS011;2719;53.624;9.786;2023-06-19T00:45:06;3.37;;;3.17;;
5391;SDS011;2719;53.624;9.786;2023-06-19T00:47:33;3.33;;;2.97;;
5391;SDS011;2719;53.624;9.786;2023-06-19T00:50:00;5.83;;;3.87;;
5391;SDS011;2719;53.624;9.786;2023-06-19T00:52:29;4.77;;;3.13;;
5391;SDS011;2719;53.624;9.786;2023-06-19T00:54:56;3.90;;;2.57;;
5391;SDS011;2719;53.624;9.786;2023-06-19T00:57:23;3.13;;;2.83;;
5391;SDS011;2719;53.624;9.786;2023-06-19T00:59:50;2.53;;;2.33;;
5391;SDS011;2719;53.624;9.786;2023-06-19T01:02:18;3.83;;;2.63;;
5391;SDS011;2719;53.624;9.786;2023-06-19T01:04:48;3.30;;;2.60;;
5391;SDS011;2719;53.624;9.786;2023-06-19T01:07:16;7.00;;;3.57;;
5391;SDS011;2719;53.624;9.786;2023-06-19T01:09:48;5.60;;;3.37;;
5391;SDS011;2719;53.624;9.786;2023-06-19T01:12:18;3.07;;;2.73;;
5391;SDS011;2719;53.624;9.786;2023-06-19T01:14:48;3.00;;;2.80;;
5391;SDS011;2719;53.624;9.786;2023-06-19T01:17:17;2.57;;;2.37;;
5391;SDS011;2719;53.624;9.786;2023-06-19T01:19:44;3.73;;;3.27;;
5391;SDS011;2719;53.624;9.786;2023-06-19T01:22:17;7.20;;;3.83;;
5391;SDS011;2719;53.624;9.786;2023-06-19T01:24:48;4.27;;;2.97;;
5391;SDS011;2719;53.624;9.786;2023-06-19T01:27:15;8.73;;;3.33;;
5391;SDS011;2719;53.624;9.786;2023-06-19T01:29:42;2.70;;;2.47;;
5391;SDS011;2719;53.624;9.786;2023-06-19T01:32:10;3.37;;;2.80;;
5391;SDS011;2719;53.624;9.786;2023-06-19T01:34:39;3.53;;;3.10;;
5391;SDS011;2719;53.624;9.786;2023-06-19T01:37:06;3.40;;;2.40;;
5391;SDS011;2719;53.624;9.786;2023-06-19T01:39:35;3.17;;;2.90;;
5391;SDS011;2719;53.624;9.786;2023-06-19T01:42:03;5.70;;;3.20;;
5391;SDS011;2719;53.624;9.786;2023-06-19T01:44:31;3.03;;;2.73;;
5391;SDS011;2719;53.624;9.786;2023-06-19T01:46:58;5.07;;;2.93;;
5391;SDS011;2719;53.624;9.786;2023-06-19T01:49:25;4.93;;;3.00;;
5391;SDS011;2719;53.624;9.786;2023-06-19T01:51:52;6.50;;;3.90;;
5391;SDS011;2719;53.624;9.786;2023-06-19T01:54:20;4.60;;;4.10;;
5391;SDS011;2719;53.624;9.786;2023-06-19T01:56:48;2.87;;;2.63;;
5391;SDS011;2719;53.624;9.786;2023-06-19T01:59:15;6.03;;;4.00;;
5391;SDS011;2719;53.624;9.786;2023-06-19T02:01:42;4.23;;;3.43;;
5391;SDS011;2719;53.624;9.786;2023-06-19T02:04:09;10.50;;;3.97;;
5391;SDS011;2719;53.624;9.786;2023-06-19T02:06:36;14.53;;;2.90;;
5391;SDS011;2719;53.624;9.786;2023-06-19T02:09:03;3.43;;;3.13;;
5391;SDS011;2719;53.624;9.786;2023-06-19T02:11:30;4.20;;;3.80;;
5391;SDS011;2719;53.624;9.786;2023-06-19T02:13:58;7.00;;;3.50;;
5391;SDS011;2719;53.624;9.786;2023-06-19T02:16:25;5.27;;;3.27;;
5391;SDS011;2719;53.624;9.786;2023-06-19T02:18:52;3.37;;;3.07;;
5391;SDS011;2719;53.624;9.786;2023-06-19T02:21:20;7.03;;;3.20;;
5391;SDS011;2719;53.624;9.786;2023-06-19T02:23:47;4.87;;;4.47;;
5391;SDS011;2719;53.624;9.786;2023-06-19T02:26:15;5.23;;;3.53;;
5391;SDS011;2719;53.624;9.786;2023-06-19T02:28:42;3.07;;;2.87;;
5391;SDS011;2719;53.624;9.786;2023-06-19T02:31:10;6.53;;;3.80;;
5391;SDS011;2719;53.624;9.786;2023-06-19T02:33:37;3.30;;;3.00;;
5391;SDS011;2719;53.624;9.786;2023-06-19T02:36:04;2.90;;;2.60;;
5391;SDS011;2719;53.624;9.786;2023-06-19T02:38:31;4.00;;;3.60;;
5391;SDS011;2719;53.624;9.786;2023-06-19T02:40:58;4.10;;;3.03;;
5391;SDS011;2719;53.624;9.786;2023-06-19T02:43:26;4.00;;;3.27;;
5391;SDS011;2719;53.624;9.786;2023-06-19T02:45:53;6.30;;;3.90;;
5391;SDS011;2719;53.624;9.786;2023-06-19T02:48:21;4.97;;;3.17;;
5391;SDS011;2719;53.624;9.786;2023-06-19T02:50:49;3.40;;;3.10;;
5391;SDS011;2719;53.624;9.786;2023-06-19T02:53:16;4.80;;;3.90;;
5391;SDS011;2719;53.624;9.786;2023-06-19T02:55:43;4.07;;;3.67;;
5391;SDS011;2719;53.624;9.786;2023-06-19T02:58:10;5.70;;;2.93;;
5391;SDS011;2719;53.624;9.786;2023-06-19T03:00:37;5.73;;;3.23;;
5391;SDS011;2719;53.624;9.786;2023-06-19T03:03:04;3.53;;;3.23;;
5391;SDS011;2719;53.624;9.786;2023-06-19T03:05:33;8.83;;;3.80;;
5391;SDS011;2719;53.624;9.786;2023-06-19T03:08:01;3.73;;;3.43;;
5391;SDS011;2719;53.624;9.786;2023-06-19T03:10:28;3.60;;;3.30;;
5391;SDS011;2719;53.624;9.786;2023-06-19T03:12:55;3.80;;;3.47;;
5391;SDS011;2719;53.624;9.786;2023-06-19T03:15:23;3.60;;;3.30;;
5391;SDS011;2719;53.624;9.786;2023-06-19T03:17:50;7.33;;;4.10;;
5391;SDS011;2719;53.624;9.786;2023-06-19T03:20:17;4.10;;;3.60;;
5391;SDS011;2719;53.624;9.786;2023-06-19T03:22:46;3.90;;;3.50;;
5391;SDS011;2719;53.624;9.786;2023-06-19T03:25:14;6.40;;;3.90;;
5391;SDS011;2719;53.624;9.786;2023-06-19T03:27:41;7.77;;;4.03;;
5391;SDS011;2719;53.624;9.786;2023-06-19T03:30:08;4.17;;;3.40;;
5391;SDS011;2719;53.624;9.786;2023-06-19T03:32:38;4.17;;;3.87;;
5391;SDS011;2719;53.624;9.786;2023-06-19T03:35:05;4.23;;;3.90;;
5391;SDS011;2719;53.624;9.786;2023-06-19T03:37:32;9.67;;;4.33;;
5391;SDS011;2719;53.624;9.786;2023-06-19T03:40:00;4.67;;;4.10;;
5391;SDS011;2719;53.624;9.786;2023-06-19T03:42:29;9.20;;;4.30;;
5391;SDS011;2719;53.624;9.786;2023-06-19T03:44:57;6.03;;;3.77;;
5391;SDS011;2719;53.624;9.786;2023-06-19T03:47:24;7.23;;;4.43;;
5391;SDS011;2719;53.624;9.786;2023-06-19T03:49:51;5.30;;;4.33;;
5391;SDS011;2719;53.624;9.786;2023-06-19T03:52:18;4.63;;;4.20;;
5391;SDS011;2719;53.624;9.786;2023-06-19T03:54:45;4.57;;;4.17;;
5391;SDS011;2719;53.624;9.786;2023-06-19T03:57:14;3.97;;;3.60;;
5391;SDS011;2719;53.624;9.786;2023-06-19T03:59:41;3.80;;;3.50;;
5391;SDS011;2719;53.624;9.786;2023-06-19T04:02:08;12.63;;;4.10;;
5391;SDS011;2719;53.624;9.786;2023-06-19T04:04:34;3.90;;;3.60;;
5391;SDS011;2719;53.624;9.786;2023-06-19T04:07:01;5.83;;;4.90;;
5391;SDS011;2719;53.624;9.786;2023-06-19T04:09:28;4.40;;;4.00;;
5391;SDS011;2719;53.624;9.786;2023-06-19T04:11:55;6.43;;;4.13;;
5391;SDS011;2719;53.624;9.786;2023-06-19T04:14:24;3.93;;;3.60;;
5391;SDS011;2719;53.624;9.786;2023-06-19T04:16:51;3.90;;;3.50;;
5391;SDS011;2719;53.624;9.786;2023-06-19T04:19:18;5.50;;;4.10;;
5391;SDS011;2719;53.624;9.786;2023-06-19T04:21:45;5.93;;;3.93;;
5391;SDS011;2719;53.624;9.786;2023-06-19T04:24:12;5.57;;;4.73;;
5391;SDS011;2719;53.624;9.786;2023-06-19T04:26:39;7.73;;;4.60;;
5391;SDS011;2719;53.624;9.786;2023-06-19T04:29:07;5.97;;;4.57;;
5391;SDS011;2719;53.624;9.786;2023-06-19T04:31:43;4.10;;;3.73;;
5391;SDS011;2719;53.624;9.786;2023-06-19T04:34:12;5.47;;;3.80;;
5391;SDS011;2719;53.624;9.786;2023-06-19T04:36:40;5.87;;;4.27;;
5391;SDS011;2719;53.624;9.786;2023-06-19T04:39:07;7.57;;;4.27;;
5391;SDS011;2719;53.624;9.786;2023-06-19T04:41:34;4.70;;;4.20;;
5391;SDS011;2719;53.624;9.786;2023-06-19T04:44:03;8.50;;;4.33;;
5391;SDS011;2719;53.624;9.786;2023-06-19T04:46:31;4.90;;;4.40;;
5391;SDS011;2719;53.624;9.786;2023-06-19T04:48:59;8.67;;;4.40;;
5391;SDS011;2719;53.624;9.786;2023-06-19T04:51:28;4.80;;;4.30;;
5391;SDS011;2719;53.624;9.786;2023-06-19T04:53:56;4.40;;;4.00;;
5391;SDS011;2719;53.624;9.786;2023-06-19T04:56:23;8.97;;;4.90;;
5391;SDS011;2719;53.624;9.786;2023-06-19T04:58:50;5.27;;;4.67;;
5391;SDS011;2719;53.624;9.786;2023-06-19T05:01:21;6.20;;;4.97;;
5391;SDS011;2719;53.624;9.786;2023-06-19T05:03:53;7.73;;;4.90;;
5391;SDS011;2719;53.624;9.786;2023-06-19T05:06:22;6.10;;;4.43;;
5391;SDS011;2719;53.624;9.786;2023-06-19T05:08:49;6.70;;;4.67;;
5391;SDS011;2719;53.624;9.786;2023-06-19T05:11:16;6.40;;;4.80;;
5391;SDS011;2719;53.624;9.786;2023-06-19T05:13:43;6.33;;;5.40;;
5391;SDS011;2719;53.624;9.786;2023-06-19T05:16:10;5.23;;;4.20;;
5391;SDS011;2719;53.624;9.786;2023-06-19T05:18:41;5.03;;;3.97;;
5391;SDS011;2719;53.624;9.786;2023-06-19T05:21:08;6.87;;;5.27;;
5391;SDS011;2719;53.624;9.786;2023-06-19T05:23:36;4.77;;;4.33;;
5391;SDS011;2719;53.624;9.786;2023-06-19T05:26:04;5.90;;;5.30;;
5391;SDS011;2719;53.624;9.786;2023-06-19T05:28:31;7.70;;;5.13;;
5391;SDS011;2719;53.624;9.786;2023-06-19T05:30:58;6.70;;;5.13;;
5391;SDS011;2719;53.624;9.786;2023-06-19T05:33:25;5.87;;;5.10;;
5391;SDS011;2719;53.624;9.786;2023-06-19T05:35:52;8.33;;;4.60;;
5391;SDS011;2719;53.624;9.786;2023-06-19T05:38:20;5.63;;;4.73;;
5391;SDS011;2719;53.624;9.786;2023-06-19T05:40:49;7.40;;;5.50;;
5391;SDS011;2719;53.624;9.786;2023-06-19T05:43:17;7.30;;;4.30;;
5391;SDS011;2719;53.624;9.786;2023-06-19T05:45:44;9.27;;;5.37;;
5391;SDS011;2719;53.624;9.786;2023-06-19T05:48:11;5.40;;;4.63;;
5391;SDS011;2719;53.624;9.786;2023-06-19T05:50:38;7.30;;;5.13;;
5391;SDS011;2719;53.624;9.786;2023-06-19T05:53:05;10.23;;;4.00;;
5391;SDS011;2719;53.624;9.786;2023-06-19T05:55:32;6.63;;;5.63;;
5391;SDS011;2719;53.624;9.786;2023-06-19T05:58:01;5.70;;;4.63;;
5391;SDS011;2719;53.624;9.786;2023-06-19T06:00:28;6.87;;;5.13;;
5391;SDS011;2719;53.624;9.786;2023-06-19T06:02:57;8.73;;;5.30;;
5391;SDS011;2719;53.624;9.786;2023-06-19T06:05:24;7.03;;;4.50;;
5391;SDS011;2719;53.624;9.786;2023-06-19T06:07:52;7.10;;;5.17;;
5391;SDS011;2719;53.624;9.786;2023-06-19T06:10:19;7.77;;;4.97;;
5391;SDS011;2719;53.624;9.786;2023-06-19T06:12:47;7.50;;;5.50;;
5391;SDS011;2719;53.624;9.786;2023-06-19T06:15:15;6.07;;;5.10;;
5391;SDS011;2719;53.624;9.786;2023-06-19T06:17:43;6.70;;;5.17;;
5391;SDS011;2719;53.624;9.786;2023-06-19T06:20:10;7.70;;;5.40;;
5391;SDS011;2719;53.624;9.786;2023-06-19T06:22:37;9.83;;;5.63;;
5391;SDS011;2719;53.624;9.786;2023-06-19T06:25:04;6.90;;;5.10;;
5391;SDS011;2719;53.624;9.786;2023-06-19T06:27:32;7.23;;;5.10;;
5391;SDS011;2719;53.624;9.786;2023-06-19T06:29:59;7.13;;;4.80;;
5391;SDS011;2719;53.624;9.786;2023-06-19T06:32:27;14.43;;;5.90;;
5391;SDS011;2719;53.624;9.786;2023-06-19T06:34:56;5.57;;;4.90;;
5391;SDS011;2719;53.624;9.786;2023-06-19T06:37:23;5.43;;;4.93;;
5391;SDS011;2719;53.624;9.786;2023-06-19T06:39:50;11.70;;;6.13;;
5391;SDS011;2719;53.624;9.786;2023-06-19T06:42:18;7.73;;;5.70;;
5391;SDS011;2719;53.624;9.786;2023-06-19T06:44:45;6.27;;;5.70;;
5391;SDS011;2719;53.624;9.786;2023-06-19T06:47:12;6.40;;;5.47;;
5391;SDS011;2719;53.624;9.786;2023-06-19T06:49:41;7.73;;;5.63;;
5391;SDS011;2719;53.624;9.786;2023-06-19T06:52:08;8.50;;;5.27;;
5391;SDS011;2719;53.624;9.786;2023-06-19T06:54:35;13.37;;;6.47;;
5391;SDS011;2719;53.624;9.786;2023-06-19T06:57:02;11.20;;;6.70;;
5391;SDS011;2719;53.624;9.786;2023-06-19T06:59:30;8.40;;;6.07;;
5391;SDS011;2719;53.624;9.786;2023-06-19T07:01:57;8.00;;;6.37;;
5391;SDS011;2719;53.624;9.786;2023-06-19T07:04:24;6.50;;;5.87;;
5391;SDS011;2719;53.624;9.786;2023-06-19T07:06:52;14.63;;;6.47;;
5391;SDS011;2719;53.624;9.786;2023-06-19T07:09:19;6.53;;;5.90;;
5391;SDS011;2719;53.624;9.786;2023-06-19T07:11:47;7.43;;;6.57;;
5391;SDS011;2719;53.624;9.786;2023-06-19T07:14:14;6.10;;;5.53;;
5391;SDS011;2719;53.624;9.786;2023-06-19T07:16:42;11.67;;;7.00;;
5391;SDS011;2719;53.624;9.786;2023-06-19T07:19:10;6.60;;;6.00;;
5391;SDS011;2719;53.624;9.786;2023-06-19T07:21:37;7.70;;;6.90;;
5391;SDS011;2719;53.624;9.786;2023-06-19T07:24:06;7.80;;;7.00;;
5391;SDS011;2719;53.624;9.786;2023-06-19T07:26:33;14.90;;;6.40;;
5391;SDS011;2719;53.624;9.786;2023-06-19T07:29:00;6.73;;;6.00;;
5391;SDS011;2719;53.624;9.786;2023-06-19T07:31:27;7.83;;;6.53;;
5391;SDS011;2719;53.624;9.786;2023-06-19T07:33:54;10.83;;;6.23;;
5391;SDS011;2719;53.624;9.786;2023-06-19T07:36:21;7.00;;;6.30;;
5391;SDS011;2719;53.624;9.786;2023-06-19T07:38:48;10.13;;;6.33;;
5391;SDS011;2719;53.624;9.786;2023-06-19T07:41:16;7.27;;;6.47;;
5391;SDS011;2719;53.624;9.786;2023-06-19T07:43:43;6.67;;;5.60;;
5391;SDS011;2719;53.624;9.786;2023-06-19T07:46:10;6.70;;;6.10;;
5391;SDS011;2719;53.624;9.786;2023-06-19T07:48:37;6.53;;;5.77;;
5391;SDS011;2719;53.624;9.786;2023-06-19T07:51:04;7.60;;;6.67;;
5391;SDS011;2719;53.624;9.786;2023-06-19T07:53:31;8.90;;;6.30;;
5391;SDS011;2719;53.624;9.786;2023-06-19T07:55:59;9.80;;;5.90;;
5391;SDS011;2719;53.624;9.786;2023-06-19T07:58:27;7.60;;;6.60;;
5391;SDS011;2719;53.624;9.786;2023-06-19T08:00:55;6.70;;;6.00;;
5391;SDS011;2719;53.624;9.786;2023-06-19T08:03:22;10.53;;;6.23;;
5391;SDS011;2719;53.624;9.786;2023-06-19T08:05:49;12.67;;;7.70;;
5391;SDS011;2719;53.624;9.786;2023-06-19T08:08:16;13.67;;;7.63;;
5391;SDS011;2719;53.624;9.786;2023-06-19T08:10:43;8.40;;;6.10;;
5391;SDS011;2719;53.624;9.786;2023-06-19T08:13:10;11.50;;;6.70;;
5391;SDS011;2719;53.624;9.786;2023-06-19T08:15:38;6.03;;;5.27;;
5391;SDS011;2719;53.624;9.786;2023-06-19T08:18:05;11.93;;;6.23;;
5391;SDS011;2719;53.624;9.786;2023-06-19T08:20:32;9.43;;;6.60;;
5391;SDS011;2719;53.624;9.786;2023-06-19T08:22:59;11.03;;;7.30;;
5391;SDS011;2719;53.624;9.786;2023-06-19T08:25:26;9.60;;;7.13;;
5391;SDS011;2719;53.624;9.786;2023-06-19T08:27:53;7.33;;;6.10;;
5391;SDS011;2719;53.624;9.786;2023-06-19T08:30:20;15.30;;;6.13;;
5391;SDS011;2719;53.624;9.786;2023-06-19T08:32:49;8.20;;;7.20;;
5391;SDS011;2719;53.624;9.786;2023-06-19T08:35:16;10.93;;;7.10;;
5391;SDS011;2719;53.624;9.786;2023-06-19T08:37:43;10.23;;;6.33;;
5391;SDS011;2719;53.624;9.786;2023-06-19T08:40:11;8.30;;;6.23;;
5391;SDS011;2719;53.624;9.786;2023-06-19T08:42:38;6.77;;;6.07;;
5391;SDS011;2719;53.624;9.786;2023-06-19T08:45:07;6.60;;;6.00;;
5391;SDS011;2719;53.624;9.786;2023-06-19T08:47:35;8.97;;;5.97;;
5391;SDS011;2719;53.624;9.786;2023-06-19T08:50:03;6.00;;;5.17;;
5391;SDS011;2719;53.624;9.786;2023-06-19T08:52:30;7.63;;;5.73;;
5391;SDS011;2719;53.624;9.786;2023-06-19T08:54:57;8.70;;;6.90;;
5391;SDS011;2719;53.624;9.786;2023-06-19T08:57:32;8.17;;;6.57;;
5391;SDS011;2719;53.624;9.786;2023-06-19T08:59:59;6.00;;;5.40;;
5391;SDS011;2719;53.624;9.786;2023-06-19T09:02:35;6.27;;;5.77;;
5391;SDS011;2719;53.624;9.786;2023-06-19T09:05:10;7.70;;;6.10;;
5391;SDS011;2719;53.624;9.786;2023-06-19T09:07:37;6.60;;;5.83;;
5391;SDS011;2719;53.624;9.786;2023-06-19T09:10:11;7.20;;;6.27;;
5391;SDS011;2719;53.624;9.786;2023-06-19T09:12:38;10.23;;;5.77;;
5391;SDS011;2719;53.624;9.786;2023-06-19T09:15:11;6.77;;;5.37;;
5391;SDS011;2719;53.624;9.786;2023-06-19T09:17:38;6.70;;;6.03;;
5391;SDS011;2719;53.624;9.786;2023-06-19T09:20:06;6.37;;;5.77;;
5391;SDS011;2719;53.624;9.786;2023-06-19T09:22:35;7.53;;;6.80;;
5391;SDS011;2719;53.624;9.786;2023-06-19T09:25:02;16.10;;;5.57;;
5391;SDS011;2719;53.624;9.786;2023-06-19T09:27:31;9.20;;;5.53;;
5391;SDS011;2719;53.624;9.786;2023-06-19T09:29:59;6.10;;;5.60;;
5391;SDS011;2719;53.624;9.786;2023-06-19T09:32:28;7.07;;;6.37;;
5391;SDS011;2719;53.624;9.786;2023-06-19T09:34:55;9.73;;;6.03;;
5391;SDS011;2719;53.624;9.786;2023-06-19T09:37:23;7.93;;;6.20;;
5391;SDS011;2719;53.624;9.786;2023-06-19T09:39:53;7.27;;;6.57;;
5391;SDS011;2719;53.624;9.786;2023-06-19T09:42:25;5.90;;;5.30;;
5391;SDS011;2719;53.624;9.786;2023-06-19T09:44:54;6.47;;;5.80;;
5391;SDS011;2719;53.624;9.786;2023-06-19T09:47:22;6.30;;;5.47;;
5391;SDS011;2719;53.624;9.786;2023-06-19T09:49:53;5.83;;;4.97;;
5391;SDS011;2719;53.624;9.786;2023-06-19T09:52:20;6.10;;;5.47;;
5391;SDS011;2719;53.624;9.786;2023-06-19T09:54:49;9.93;;;5.20;;
5391;SDS011;2719;53.624;9.786;2023-06-19T09:57:18;7.97;;;6.43;;
5391;SDS011;2719;53.624;9.786;2023-06-19T09:59:45;10.20;;;7.10;;
5391;SDS011;2719;53.624;9.786;2023-06-19T10:02:14;6.20;;;5.50;;
5391;SDS011;2719;53.624;9.786;2023-06-19T10:04:41;7.93;;;6.07;;
5391;SDS011;2719;53.624;9.786;2023-06-19T10:07:14;8.93;;;5.87;;
5391;SDS011;2719;53.624;9.786;2023-06-19T10:09:54;13.33;;;6.10;;
5391;SDS011;2719;53.624;9.786;2023-06-19T10:12:22;6.40;;;5.43;;
5391;SDS011;2719;53.624;9.786;2023-06-19T10:14:49;6.80;;;4.87;;
5391;SDS011;2719;53.624;9.786;2023-06-19T10:17:17;10.17;;;5.67;;
5391;SDS011;2719;53.624;9.786;2023-06-19T10:19:49;6.73;;;5.00;;
5391;SDS011;2719;53.624;9.786;2023-06-19T10:22:19;11.47;;;6.80;;
5391;SDS011;2719;53.624;9.786;2023-06-19T10:24:48;7.83;;;5.87;;
5391;SDS011;2719;53.624;9.786;2023-06-19T10:27:20;6.90;;;5.50;;
5391;SDS011;2719;53.624;9.786;2023-06-19T10:29:52;8.37;;;6.53;;
5391;SDS011;2719;53.624;9.786;2023-06-19T10:32:20;8.83;;;6.70;;
5391;SDS011;2719;53.624;9.786;2023-06-19T10:34:47;8.03;;;6.90;;
5391;SDS011;2719;53.624;9.786;2023-06-19T10:37:14;8.10;;;6.20;;
5391;SDS011;2719;53.624;9.786;2023-06-19T10:39:42;6.13;;;5.57;;
5391;SDS011;2719;53.624;9.786;2023-06-19T10:42:09;10.27;;;6.20;;
5391;SDS011;2719;53.624;9.786;2023-06-19T10:44:37;11.20;;;5.70;;
5391;SDS011;2719;53.624;9.786;2023-06-19T10:47:05;6.13;;;5.63;;
5391;SDS011;2719;53.624;9.786;2023-06-19T10:49:33;5.03;;;4.63;;
5391;SDS011;2719;53.624;9.786;2023-06-19T10:52:00;6.80;;;5.47;;
5391;SDS011;2719;53.624;9.786;2023-06-19T10:54:27;5.50;;;5.00;;
5391;SDS011;2719;53.624;9.786;2023-06-19T10:56:56;7.07;;;4.53;;
5391;SDS011;2719;53.624;9.786;2023-06-19T10:59:28;8.00;;;4.50;;
5391;SDS011;2719;53.624;9.786;2023-06-19T11:01:55;7.47;;;4.33;;
5391;SDS011;2719;53.624;9.786;2023-06-19T11:04:23;4.43;;;3.77;;
5391;SDS011;2719;53.624;9.786;2023-06-19T11:06:50;5.43;;;4.93;;
5391;SDS011;2719;53.624;9.786;2023-06-19T11:09:17;4.93;;;4.63;;
5391;SDS011;2719;53.624;9.786;2023-06-19T11:11:45;4.03;;;3.73;;
5391;SDS011;2719;53.624;9.786;2023-06-19T11:14:12;4.70;;;4.30;;
5391;SDS011;2719;53.624;9.786;2023-06-19T11:16:40;15.20;;;4.87;;
5391;SDS011;2719;53.624;9.786;2023-06-19T11:19:08;4.43;;;4.07;;
5391;SDS011;2719;53.624;9.786;2023-06-19T11:21:37;7.00;;;4.53;;
5391;SDS011;2719;53.624;9.786;2023-06-19T11:24:04;4.33;;;4.03;;
5391;SDS011;2719;53.624;9.786;2023-06-19T11:26:34;3.60;;;3.40;;
5391;SDS011;2719;53.624;9.786;2023-06-19T11:29:01;3.90;;;3.50;;
5391;SDS011;2719;53.624;9.786;2023-06-19T11:31:29;7.40;;;3.87;;
5391;SDS011;2719;53.624;9.786;2023-06-19T11:33:57;3.73;;;3.43;;
5391;SDS011;2719;53.624;9.786;2023-06-19T11:36:24;4.03;;;3.63;;
5391;SDS011;2719;53.624;9.786;2023-06-19T11:38:52;3.97;;;3.67;;
5391;SDS011;2719;53.624;9.786;2023-06-19T11:41:25;4.67;;;3.83;;
5391;SDS011;2719;53.624;9.786;2023-06-19T11:43:59;4.80;;;4.40;;
5391;SDS011;2719;53.624;9.786;2023-06-19T11:46:30;4.03;;;3.73;;
5391;SDS011;2719;53.624;9.786;2023-06-19T11:49:06;4.10;;;3.70;;
5391;SDS011;2719;53.624;9.786;2023-06-19T11:51:34;5.00;;;4.63;;
5391;SDS011;2719;53.624;9.786;2023-06-19T11:54:03;7.43;;;4.47;;
5391;SDS011;2719;53.624;9.786;2023-06-19T11:56:30;4.13;;;3.83;;
5391;SDS011;2719;53.624;9.786;2023-06-19T11:58:57;6.87;;;3.30;;
5391;SDS011;2719;53.624;9.786;2023-06-19T12:01:24;3.57;;;3.30;;
5391;SDS011;2719;53.624;9.786;2023-06-19T12:03:51;4.20;;;3.80;;
5391;SDS011;2719;53.624;9.786;2023-06-19T12:06:18;6.30;;;4.43;;
5391;SDS011;2719;53.624;9.786;2023-06-19T12:08:45;5.50;;;3.60;;
5391;SDS011;2719;53.624;9.786;2023-06-19T12:11:14;7.33;;;3.50;;
5391;SDS011;2719;53.624;9.786;2023-06-19T12:13:41;4.10;;;3.80;;
5391;SDS011;2719;53.624;9.786;2023-06-19T12:16:09;11.23;;;3.90;;
5391;SDS011;2719;53.624;9.786;2023-06-19T12:18:36;3.67;;;3.47;;
5391;SDS011;2719;53.624;9.786;2023-06-19T12:21:04;3.30;;;3.10;;
5391;SDS011;2719;53.624;9.786;2023-06-19T12:23:31;3.80;;;3.20;;
5391;SDS011;2719;53.624;9.786;2023-06-19T12:25:58;4.10;;;3.23;;
5391;SDS011;2719;53.624;9.786;2023-06-19T12:28:26;8.63;;;3.07;;
5391;SDS011;2719;53.624;9.786;2023-06-19T12:30:53;4.93;;;3.00;;
5391;SDS011;2719;53.624;9.786;2023-06-19T12:33:21;4.67;;;3.20;;
5391;SDS011;2719;53.624;9.786;2023-06-19T12:35:48;3.40;;;2.90;;
5391;SDS011;2719;53.624;9.786;2023-06-19T12:38:15;3.27;;;2.97;;
5391;SDS011;2719;53.624;9.786;2023-06-19T12:40:43;3.60;;;3.30;;
5391;SDS011;2719;53.624;9.786;2023-06-19T12:43:10;4.97;;;3.43;;
5391;SDS011;2719;53.624;9.786;2023-06-19T12:45:39;4.43;;;3.90;;
5391;SDS011;2719;53.624;9.786;2023-06-19T12:48:07;5.20;;;3.77;;
5391;SDS011;2719;53.624;9.786;2023-06-19T12:50:34;4.17;;;3.80;;
5391;SDS011;2719;53.624;9.786;2023-06-19T12:53:01;8.17;;;4.20;;
5391;SDS011;2719;53.624;9.786;2023-06-19T12:55:28;6.20;;;4.17;;
5391;SDS011;2719;53.624;9.786;2023-06-19T12:57:55;4.50;;;3.07;;
5391;SDS011;2719;53.624;9.786;2023-06-19T13:00:22;7.17;;;4.30;;
5391;SDS011;2719;53.624;9.786;2023-06-19T13:02:50;6.63;;;3.30;;
5391;SDS011;2719;53.624;9.786;2023-06-19T13:05:17;3.40;;;2.93;;
5391;SDS011;2719;53.624;9.786;2023-06-19T13:07:44;3.13;;;2.93;;
5391;SDS011;2719;53.624;9.786;2023-06-19T13:10:11;2.83;;;2.53;;
5391;SDS011;2719;53.624;9.786;2023-06-19T13:12:38;3.70;;;3.17;;
5391;SDS011;2719;53.624;9.786;2023-06-19T13:15:06;7.80;;;3.60;;
5391;SDS011;2719;53.624;9.786;2023-06-19T13:17:33;11.30;;;2.87;;
5391;SDS011;2719;53.624;9.786;2023-06-19T13:20:02;11.53;;;3.37;;
5391;SDS011;2719;53.624;9.786;2023-06-19T13:22:30;5.87;;;2.50;;
5391;SDS011;2719;53.624;9.786;2023-06-19T13:24:57;4.60;;;2.33;;
5391;SDS011;2719;53.624;9.786;2023-06-19T13:27:24;3.90;;;2.37;;
5391;SDS011;2719;53.624;9.786;2023-06-19T13:29:51;21.67;;;3.20;;
5391;SDS011;2719;53.624;9.786;2023-06-19T13:32:18;3.20;;;1.90;;
5391;SDS011;2719;53.624;9.786;2023-06-19T13:34:45;9.60;;;2.83;;
5391;SDS011;2719;53.624;9.786;2023-06-19T13:37:13;2.03;;;1.93;;
5391;SDS011;2719;53.624;9.786;2023-06-19T13:39:40;4.00;;;2.27;;
5391;SDS011;2719;53.624;9.786;2023-06-19T13:42:08;6.93;;;2.57;;
5391;SDS011;2719;53.624;9.786;2023-06-19T13:44:35;3.23;;;1.77;;
5391;SDS011;2719;53.624;9.786;2023-06-19T13:47:02;4.20;;;2.20;;
5391;SDS011;2719;53.624;9.786;2023-06-19T13:49:30;14.33;;;2.27;;
5391;SDS011;2719;53.624;9.786;2023-06-19T13:51:57;2.37;;;1.90;;
5391;SDS011;2719;53.624;9.786;2023-06-19T13:54:25;5.50;;;1.70;;
5391;SDS011;2719;53.624;9.786;2023-06-19T13:56:52;1.63;;;1.53;;
5391;SDS011;2719;53.624;9.786;2023-06-19T13:59:19;4.23;;;2.90;;
5391;SDS011;2719;53.624;9.786;2023-06-19T14:01:46;2.67;;;2.47;;
5391;SDS011;2719;53.624;9.786;2023-06-19T14:04:13;2.63;;;2.03;;
5391;SDS011;2719;53.624;9.786;2023-06-19T14:06:40;8.80;;;2.10;;
5391;SDS011;2719;53.624;9.786;2023-06-19T14:09:07;2.70;;;2.50;;
5391;SDS011;2719;53.624;9.786;2023-06-19T14:11:36;2.10;;;2.00;;
5391;SDS011;2719;53.624;9.786;2023-06-19T14:14:03;1.67;;;1.40;;
5391;SDS011;2719;53.624;9.786;2023-06-19T14:16:30;1.60;;;1.50;;
5391;SDS011;2719;53.624;9.786;2023-06-19T14:18:57;3.47;;;2.27;;
5391;SDS011;2719;53.624;9.786;2023-06-19T14:21:24;4.10;;;1.80;;
5391;SDS011;2719;53.624;9.786;2023-06-19T14:23:52;2.00;;;1.80;;
5391;SDS011;2719;53.624;9.786;2023-06-19T14:26:19;2.23;;;2.13;;
5391;SDS011;2719;53.624;9.786;2023-06-19T14:28:47;6.70;;;2.40;;
5391;SDS011;2719;53.624;9.786;2023-06-19T14:31:14;4.23;;;2.90;;
5391;SDS011;2719;53.624;9.786;2023-06-19T14:33:41;3.50;;;1.80;;
5391;SDS011;2719;53.624;9.786;2023-06-19T14:36:08;14.37;;;2.23;;
5391;SDS011;2719;53.624;9.786;2023-06-19T14:38:35;2.93;;;2.23;;
5391;SDS011;2719;53.624;9.786;2023-06-19T14:41:02;2.77;;;2.17;;
5391;SDS011;2719;53.624;9.786;2023-06-19T14:43:29;3.10;;;2.30;;
5391;SDS011;2719;53.624;9.786;2023-06-19T14:45:59;2.83;;;2.53;;
5391;SDS011;2719;53.624;9.786;2023-06-19T14:48:26;2.47;;;2.37;;
5391;SDS011;2719;53.624;9.786;2023-06-19T14:50:55;3.97;;;1.87;;
5391;SDS011;2719;53.624;9.786;2023-06-19T14:53:22;3.60;;;2.30;;
5391;SDS011;2719;53.624;9.786;2023-06-19T14:55:49;2.30;;;1.90;;
5391;SDS011;2719;53.624;9.786;2023-06-19T14:58:16;2.87;;;2.50;;
5391;SDS011;2719;53.624;9.786;2023-06-19T15:00:43;2.97;;;2.77;;
5391;SDS011;2719;53.624;9.786;2023-06-19T15:03:11;3.47;;;3.17;;
5391;SDS011;2719;53.624;9.786;2023-06-19T15:05:38;9.90;;;2.30;;
5391;SDS011;2719;53.624;9.786;2023-06-19T15:08:05;10.93;;;2.97;;
5391;SDS011;2719;53.624;9.786;2023-06-19T15:10:34;3.70;;;2.90;;
5391;SDS011;2719;53.624;9.786;2023-06-19T15:13:01;3.87;;;3.37;;
5391;SDS011;2719;53.624;9.786;2023-06-19T15:15:29;2.43;;;2.20;;
5391;SDS011;2719;53.624;9.786;2023-06-19T15:17:56;5.13;;;3.23;;